createdAt,value
2023-04-01T00:01:32.172Z,95465.66
2023-04-01T00:04:03.137Z,95469.56
2023-04-01T00:06:32.725Z,95468.03
2023-04-01T00:09:00.753Z,95469.06
2023-04-01T00:11:29.349Z,95472.72
2023-04-01T00:13:57.343Z,95478.38
2023-04-01T00:16:25.863Z,95463.53
2023-04-01T00:18:54.160Z,95469.06
2023-04-01T00:21:22.940Z,95476.53
2023-04-01T00:23:52.589Z,95458.22
2023-04-01T00:26:22.093Z,95469.25
2023-04-01T00:28:50.405Z,95467.22
2023-04-01T00:31:18.493Z,95458.75
2023-04-01T00:33:46.846Z,95458.88
2023-04-01T00:36:15.535Z,95464.34
2023-04-01T00:38:43.934Z,95454.56
2023-04-01T00:41:15.394Z,95466.41
2023-04-01T00:43:43.522Z,95460.75
2023-04-01T00:46:11.467Z,95459.53
2023-04-01T00:48:40.947Z,95469.06
2023-04-01T00:51:09.649Z,95454.72
2023-04-01T00:53:40.284Z,95457.56
2023-04-01T00:56:09.454Z,95446.41
2023-04-01T00:58:40.836Z,95461.06
2023-04-01T01:01:08.829Z,95464.03
2023-04-01T01:03:37.182Z,95457.22
2023-04-01T01:06:13.583Z,95463.38
2023-04-01T01:08:54.970Z,95459.41
2023-04-01T01:11:27.962Z,95456.91
2023-04-01T01:14:00.420Z,95460.38
2023-04-01T01:16:29.325Z,95455.25
2023-04-01T01:19:00.107Z,95464.78
2023-04-01T01:21:35.516Z,95462.75
2023-04-01T01:24:35.152Z,95451.22
2023-04-01T01:27:06.666Z,95452.22
2023-04-01T01:30:00.569Z,95441.75
2023-04-01T01:32:37.930Z,95453.56
2023-04-01T01:35:16.648Z,95446.91
2023-04-01T01:37:44.587Z,95451.06
2023-04-01T01:40:13.189Z,95449.88
2023-04-01T01:42:42.750Z,95440.56
2023-04-01T01:45:11.315Z,95444.91
2023-04-01T01:47:39.615Z,95438.06
2023-04-01T01:50:09.140Z,95440.38
2023-04-01T01:52:38.469Z,95435.25
2023-04-01T01:55:25.872Z,95436.59
2023-04-01T01:57:53.871Z,95433.22
2023-04-01T02:00:21.958Z,95433.25
2023-04-01T02:02:50.126Z,95432.78
2023-04-01T02:05:19.525Z,95434.28
2023-04-01T02:07:50.732Z,95437.13
2023-04-01T02:10:19.047Z,95431.78
2023-04-01T02:12:47.066Z,95438.59
2023-04-01T02:15:15.440Z,95446.59
2023-04-01T02:17:45.781Z,95447.75
2023-04-01T02:20:15.925Z,95448.09
2023-04-01T02:22:45.467Z,95447.19
2023-04-01T02:25:15.620Z,95449.88
2023-04-01T02:27:45.268Z,95445.69
2023-04-01T02:30:14.079Z,95439.34
2023-04-01T02:32:42.120Z,95438.56
2023-04-01T02:35:11.549Z,95446.22
2023-04-01T02:37:40.492Z,95433.19
2023-04-01T02:40:09.619Z,95443.06
2023-04-01T02:42:39.222Z,95448.41
2023-04-01T02:45:08.331Z,95449.59
2023-04-01T02:47:36.295Z,95448.41
2023-04-01T02:50:04.709Z,95444.41
2023-04-01T02:52:32.757Z,95452.09
2023-04-01T02:55:00.954Z,95443.09
2023-04-01T02:57:29.336Z,95446.28
2023-04-01T02:59:58.715Z,95452.44
2023-04-01T03:02:26.732Z,95446.41
2023-04-01T03:04:55.040Z,95443.09
2023-04-01T03:07:23.013Z,95443.25
2023-04-01T03:09:51.627Z,95450.94
2023-04-01T03:12:19.971Z,95441.13
2023-04-01T03:14:47.936Z,95445.13
2023-04-01T03:17:17.383Z,95443.44
2023-04-01T03:19:45.728Z,95444.28
2023-04-01T03:22:13.645Z,95446.41
2023-04-01T03:24:41.643Z,95443.63
2023-04-01T03:27:09.851Z,95450.63
2023-04-01T03:29:37.830Z,95441.81
2023-04-01T03:32:05.758Z,95451.94
2023-04-01T03:34:35.684Z,95443.09
2023-04-01T03:37:03.631Z,95450.63
2023-04-01T03:39:31.652Z,95444.28
2023-04-01T03:41:59.521Z,95451.78
2023-04-01T03:44:27.417Z,95456.13
2023-04-01T03:46:55.328Z,95452.75
2023-04-01T03:49:23.340Z,95457.78
2023-04-01T03:51:52.662Z,95447.47
2023-04-01T03:54:21.118Z,95463.63
2023-04-01T03:56:49.376Z,95463.13
2023-04-01T03:59:17.437Z,95459.94
2023-04-01T04:01:45.496Z,95461.78
2023-04-01T04:04:14.177Z,95459.78
2023-04-01T04:06:42.173Z,95460.78
2023-04-01T04:09:11.495Z,95462.63
2023-04-01T04:11:39.437Z,95466.47
2023-04-01T04:14:07.388Z,95465.13
2023-04-01T04:16:37.515Z,95468.75
2023-04-01T04:19:05.503Z,95464.13
2023-04-01T04:21:33.747Z,95471.59
2023-04-01T04:24:01.776Z,95464.44
2023-04-01T04:26:31.368Z,95471.59
2023-04-01T04:28:59.584Z,95473.28
2023-04-01T04:31:27.783Z,95476.28
2023-04-01T04:33:55.937Z,95476.31
2023-04-01T04:36:24.027Z,95475.47
2023-04-01T04:38:51.946Z,95477.94
2023-04-01T04:41:20.152Z,95480.41
2023-04-01T04:43:53.064Z,95491.81
2023-04-01T04:46:21.072Z,95480.81
2023-04-01T04:48:49.184Z,95479.97
2023-04-01T04:51:17.671Z,95470.97
2023-04-01T04:53:45.590Z,95475.94
2023-04-01T04:56:13.585Z,95479.59
2023-04-01T04:58:41.803Z,95479.59
2023-04-01T05:01:11.968Z,95488.44
2023-04-01T05:03:40.050Z,95483.78
2023-04-01T05:06:08.803Z,95481.59
2023-04-01T05:08:36.783Z,95490.78
2023-04-01T05:11:04.935Z,95488.25
2023-04-01T05:13:33.181Z,95486.44
2023-04-01T05:16:01.068Z,95497.09
2023-04-01T05:18:30.370Z,95495.09
2023-04-01T05:20:58.237Z,95488.75
2023-04-01T05:23:26.196Z,95499.94
2023-04-01T05:25:54.371Z,95496.78
2023-04-01T05:28:22.381Z,95492.91
2023-04-01T05:30:50.295Z,95502.41
2023-04-01T05:33:18.584Z,95503.59
2023-04-01T05:35:47.932Z,95507.94
2023-04-01T05:38:15.825Z,95502.59
2023-04-01T05:40:43.697Z,95501.75
2023-04-01T05:43:11.906Z,95508.09
2023-04-01T05:45:40.011Z,95501.91
2023-04-01T05:48:08.079Z,95503.91
2023-04-01T05:50:36.292Z,95506.78
2023-04-01T05:53:05.823Z,95516.94
2023-04-01T05:55:33.996Z,95516.97
2023-04-01T05:58:02.472Z,95510.72
2023-04-01T06:00:30.361Z,95522.53
2023-04-01T06:03:00.703Z,95519.06
2023-04-01T06:05:30.394Z,95521.09
2023-04-01T06:08:00.749Z,95526.69
2023-04-01T06:10:39.298Z,95516.53
2023-04-01T06:13:08.315Z,95522.22
2023-04-01T06:15:38.666Z,95527.06
2023-04-01T06:18:37.046Z,95528.16
2023-04-01T06:21:07.872Z,95523.53
2023-04-01T06:23:54.598Z,95522.69
2023-04-01T06:26:27.343Z,95525.69
2023-04-01T06:29:11.511Z,95527.69
2023-04-01T06:31:49.140Z,95526.19
2023-04-01T06:34:33.155Z,95535.72
2023-04-01T06:37:17.596Z,95534.91
2023-04-01T06:39:53.328Z,95542.56
2023-04-01T06:42:35.102Z,95539.03
2023-04-01T06:45:09.314Z,95543.84
2023-04-01T06:47:45.545Z,95543.38
2023-04-01T06:50:17.454Z,95543.03
2023-04-01T06:52:49.724Z,95542.88
2023-04-01T06:55:29.272Z,95547.88
2023-04-01T06:57:59.415Z,95550.06
2023-04-01T07:00:30.191Z,95557.03
2023-04-01T07:03:06.635Z,95558.22
2023-04-01T07:05:35.009Z,95554.38
2023-04-01T07:08:04.853Z,95553.56
2023-04-01T07:10:37.152Z,95552.22
2023-04-01T07:13:07.010Z,95551.53
2023-04-01T07:15:37.517Z,95568.53
2023-04-01T07:18:07.603Z,95559.69
2023-04-01T07:20:35.583Z,95568.56
2023-04-01T07:23:05.018Z,95570.22
2023-04-01T07:25:33.976Z,95568.22
2023-04-01T07:28:03.741Z,95575.41
2023-04-01T07:30:48.645Z,95569.75
2023-04-01T07:33:19.076Z,95570.06
2023-04-01T07:35:48.529Z,95567.22
2023-04-01T07:38:22.322Z,95575.06
2023-04-01T07:40:51.500Z,95575.25
2023-04-01T07:43:37.006Z,95578.03
2023-04-01T07:46:10.625Z,95579.31
2023-04-01T07:48:41.733Z,95581.00
2023-04-01T07:51:11.190Z,95582.28
2023-04-01T07:53:40.255Z,95581.03
2023-04-01T07:56:10.759Z,95588.63
2023-04-01T07:58:46.131Z,95591.50
2023-04-01T08:01:17.932Z,95592.19
2023-04-01T08:03:54.982Z,95596.03
2023-04-01T08:06:26.660Z,95588.53
2023-04-01T08:09:01.780Z,95608.88
2023-04-01T08:11:46.001Z,95592.88
2023-04-01T08:14:16.481Z,95600.53
2023-04-01T08:16:48.594Z,95603.72
2023-04-01T08:19:21.838Z,95609.03
2023-04-01T08:21:51.898Z,95620.09
2023-04-01T08:24:23.006Z,95616.69
2023-04-01T08:26:52.334Z,95614.00
2023-04-01T08:29:21.976Z,95626.06
2023-04-01T08:31:53.681Z,95628.13
2023-04-01T08:34:23.346Z,95625.09
2023-04-01T08:36:54.878Z,95626.91
2023-04-01T08:39:28.076Z,95622.56
2023-04-01T08:42:35.394Z,95630.72
2023-04-01T08:45:20.872Z,95639.88
2023-04-01T08:48:13.870Z,95638.59
2023-04-01T08:51:13.804Z,95642.94
2023-04-01T08:53:50.143Z,95640.13
2023-04-01T08:56:20.204Z,95642.13
2023-04-01T08:59:06.724Z,95645.25
2023-04-01T09:02:01.998Z,95656.81
2023-04-01T09:04:41.206Z,95662.28
2023-04-01T09:07:18.035Z,95660.66
2023-04-01T09:10:13.392Z,95666.94
2023-04-01T09:12:53.262Z,95662.50
2023-04-01T09:15:50.183Z,95666.84
2023-04-01T09:18:33.275Z,95663.81
2023-04-01T09:21:20.948Z,95667.16
2023-04-01T09:24:22.195Z,95670.25
2023-04-01T09:27:01.120Z,95671.47
2023-04-01T09:29:37.644Z,95667.78
2023-04-01T09:32:21.149Z,95676.44
2023-04-01T09:34:56.680Z,95678.66
2023-04-01T09:37:33.674Z,95679.88
2023-04-01T09:40:20.528Z,95694.22
2023-04-01T09:42:58.419Z,95696.84
2023-04-01T09:45:37.872Z,95691.50
2023-04-01T09:48:19.634Z,95699.50
2023-04-01T09:50:54.704Z,95695.31
2023-04-01T09:53:31.353Z,95702.31
2023-04-01T09:56:33.119Z,95702.34
2023-04-01T09:59:35.192Z,95701.63
2023-04-01T10:02:45.742Z,95707.81
2023-04-01T10:05:55.712Z,95707.03
2023-04-01T10:08:58.981Z,95717.19
2023-04-01T10:11:55.907Z,95723.38
2023-04-01T10:15:02.716Z,95716.50
2023-04-01T10:17:50.270Z,95731.53
2023-04-01T10:21:00.680Z,95735.50
2023-04-01T10:23:59.131Z,95731.69
2023-04-01T10:26:34.762Z,95733.53
2023-04-01T10:29:24.514Z,95736.88
2023-04-01T10:32:16.113Z,95734.53
2023-04-01T10:35:22.733Z,95738.00
2023-04-01T10:38:28.788Z,95737.50
2023-04-01T10:41:13.632Z,95741.94
2023-04-01T10:44:13.825Z,95751.91
2023-04-01T10:47:11.947Z,95749.63
2023-04-01T10:50:07.254Z,95749.09
2023-04-01T10:52:58.391Z,95756.31
2023-04-01T10:56:01.798Z,95748.63
2023-04-01T10:58:58.482Z,95755.97
2023-04-01T11:02:09.987Z,95753.94
2023-04-01T11:05:26.777Z,95764.25
2023-04-01T11:08:25.592Z,95756.63
2023-04-01T11:11:10.378Z,95764.94
2023-04-01T11:14:20.753Z,95770.94
2023-04-01T11:17:11.925Z,95756.22
2023-04-01T11:20:12.700Z,95761.78
2023-04-01T11:23:01.235Z,95772.00
2023-04-01T11:25:42.118Z,95785.34
2023-04-01T11:28:27.910Z,95784.03
2023-04-01T11:31:02.425Z,95775.47
2023-04-01T11:33:32.322Z,95771.88
2023-04-01T11:36:08.902Z,95781.13
2023-04-01T11:39:00.816Z,95781.75
2023-04-01T11:41:40.195Z,95787.63
2023-04-01T11:44:18.411Z,95791.16
2023-04-01T11:46:56.965Z,95779.59
2023-04-01T11:49:35.810Z,95790.78
2023-04-01T11:52:12.954Z,95796.47
2023-04-01T11:54:53.971Z,95789.50
2023-04-01T11:57:37.690Z,95805.38
2023-04-01T12:00:22.555Z,95806.03
2023-04-01T12:02:56.613Z,95805.38
2023-04-01T12:05:41.330Z,95812.88
2023-04-01T12:08:19.640Z,95819.88
2023-04-01T12:10:49.455Z,95811.75
2023-04-01T12:13:23.996Z,95819.03
2023-04-01T12:16:27.743Z,95818.00
2023-04-01T12:18:56.896Z,95824.50
2023-04-01T12:21:27.769Z,95817.31
2023-04-01T12:24:12.711Z,95835.28
2023-04-01T12:27:10.086Z,95836.03
2023-04-01T12:30:04.584Z,95827.50
2023-04-01T12:32:36.342Z,95834.53
2023-04-01T12:35:21.388Z,95841.44
2023-04-01T12:38:01.899Z,95844.69
2023-04-01T12:40:53.838Z,95847.19
2023-04-01T12:43:52.556Z,95865.25
2023-04-01T12:46:23.034Z,95859.22
2023-04-01T12:49:10.235Z,95851.16
2023-04-01T12:51:47.839Z,95855.88
2023-04-01T12:54:48.183Z,95861.53
2023-04-01T12:57:25.370Z,95863.75
2023-04-01T13:00:13.587Z,95869.06
2023-04-01T13:02:53.364Z,95880.09
2023-04-01T13:05:42.263Z,95875.94
2023-04-01T13:08:20.189Z,95878.75
2023-04-01T13:11:00.316Z,95885.47
2023-04-01T13:13:49.276Z,95887.75
2023-04-01T13:16:18.339Z,95882.25
2023-04-01T13:18:56.332Z,95887.91
2023-04-01T13:21:28.694Z,95886.44
2023-04-01T13:23:59.136Z,95891.22
2023-04-01T13:26:30.120Z,95886.53
2023-04-01T13:29:01.974Z,95894.75
2023-04-01T13:31:39.918Z,95898.09
2023-04-01T13:34:22.726Z,95899.44
2023-04-01T13:37:20.496Z,95895.50
2023-04-01T13:40:02.770Z,95903.97
2023-04-01T13:42:32.597Z,95902.69
2023-04-01T13:45:04.756Z,95911.88
2023-04-01T13:48:08.676Z,95911.88
2023-04-01T13:50:57.177Z,95913.72
2023-04-01T13:53:43.272Z,95916.72
2023-04-01T13:56:18.066Z,95921.91
2023-04-01T13:58:57.787Z,95927.25
2023-04-01T14:01:32.415Z,95922.72
2023-04-01T14:04:32.989Z,95927.41
2023-04-01T14:07:09.413Z,95934.94
2023-04-01T14:09:47.277Z,95932.97
2023-04-01T14:12:21.432Z,95944.31
2023-04-01T14:15:11.666Z,95936.63
2023-04-01T14:17:51.935Z,95946.78
